Time;durP1;ratioP1;P1;durP2;ratioP2;P2;SDS_P1;SDS_P2;PMS_P1;PMS_P2;Temp;Humidity;BMP_temperature;BMP_pressure;BME280_temperature;BME280_humidity;BME280_pressure;Samples;Min_cycle;Max_cycle;Signal;HPM_P1;HPM_P2
2021/01/10 00:02:24;;;;;;;84.22;37.67;;;;;;;-1.84;100.00;102562.91;5205739;28;20409;-66
2021/01/10 00:04:55;;;;;;;90.95;40.55;;;;;;;-1.85;100.00;102561.19;5204885;28;20477;-66
2021/01/10 00:07:25;;;;;;;82.93;38.53;;;;;;;-1.82;100.00;102571.59;5204980;28;20043;-66
2021/01/10 00:09:56;;;;;;;83.68;39.00;;;;;;;-1.76;100.00;102557.38;5205430;28;20029;-65
2021/01/10 00:12:27;;;;;;;83.97;38.00;;;;;;;-1.71;100.00;102559.88;5205348;28;20021;-66
2021/01/10 00:14:58;;;;;;;93.70;41.58;;;;;;;-1.69;100.00;102566.00;5203634;28;20382;-66
2021/01/10 00:17:28;;;;;;;80.47;36.72;;;;;;;-1.64;100.00;102561.44;5203140;28;20028;-66
2021/01/10 00:19:59;;;;;;;91.40;40.45;;;;;;;-1.63;100.00;102563.16;5204136;28;20021;-66
2021/01/10 00:22:29;;;;;;;98.95;39.75;;;;;;;-1.58;100.00;102556.00;5203982;28;20025;-66
2021/01/10 00:25:00;;;;;;;94.22;36.85;;;;;;;-1.53;100.00;102555.84;5203876;28;20021;-66
2021/01/10 00:27:30;;;;;;;98.32;41.70;;;;;;;-1.51;100.00;102559.28;5202777;28;20360;-66
2021/01/10 00:30:02;;;;;;;81.10;38.92;;;;;;;-1.50;100.00;102548.75;5203649;28;20022;-66
2021/01/10 00:32:33;;;;;;;87.13;40.45;;;;;;;-1.50;100.00;102545.25;5205203;28;20074;-66
2021/01/10 00:35:05;;;;;;;92.93;41.00;;;;;;;-1.47;100.00;102556.53;5204757;28;20543;-66
2021/01/10 00:37:36;;;;;;;83.95;37.15;;;;;;;-1.40;100.00;102552.81;5203801;28;20109;-66
2021/01/10 00:40:07;;;;;;;90.45;39.50;;;;;;;-1.41;100.00;102553.69;5203982;28;20585;-66
2021/01/10 00:42:40;;;;;;;86.32;38.15;;;;;;;-1.39;100.00;102551.88;5203507;28;20036;-66
2021/01/10 00:45:12;;;;;;;88.45;39.22;;;;;;;-1.41;100.00;102550.19;5203666;28;20044;-66
2021/01/10 00:47:42;;;;;;;91.13;39.22;;;;;;;-1.42;100.00;102544.06;5202924;28;20033;-66
2021/01/10 00:50:13;;;;;;;89.43;40.42;;;;;;;-1.38;100.00;102547.47;5199366;28;20041;-66
2021/01/10 00:52:43;;;;;;;89.95;38.75;;;;;;;-1.35;100.00;102545.63;5203269;28;20470;-66
2021/01/10 00:55:14;;;;;;;92.97;42.63;;;;;;;-1.34;100.00;102547.34;5202643;28;20385;-66
2021/01/10 00:57:46;;;;;;;88.20;38.78;;;;;;;-1.32;100.00;102553.41;5206329;28;20086;-66
2021/01/10 01:00:21;;;;;;;90.40;37.95;;;;;;;-1.27;100.00;102550.63;5205455;28;20493;-66
2021/01/10 01:02:51;;;;;;;87.78;38.25;;;;;;;-1.24;100.00;102560.22;5202738;28;20486;-66
2021/01/10 01:05:22;;;;;;;101.13;41.10;;;;;;;-1.22;100.00;102553.97;5201890;28;20021;-66
2021/01/10 01:07:52;;;;;;;86.07;38.00;;;;;;;-1.22;100.00;102561.88;5202343;28;20025;-66
2021/01/10 01:10:23;;;;;;;78.65;35.65;;;;;;;-1.17;100.00;102559.97;5202958;28;20025;-66
2021/01/10 01:12:53;;;;;;;83.97;37.25;;;;;;;-1.14;100.00;102553.75;5202629;28;20044;-66
2021/01/10 01:15:24;;;;;;;89.93;38.53;;;;;;;-1.13;100.00;102556.31;5203164;28;20137;-66
2021/01/10 01:17:54;;;;;;;81.55;36.90;;;;;;;-1.13;100.00;102556.31;5201429;28;20033;-66
2021/01/10 01:20:24;;;;;;;87.15;37.08;;;;;;;-1.11;100.00;102556.28;5203010;28;20398;-66
2021/01/10 01:22:55;;;;;;;84.25;36.97;;;;;;;-1.11;100.00;102557.13;5202412;28;20031;-66
2021/01/10 01:25:25;;;;;;;101.90;37.83;;;;;;;-1.10;100.00;102555.38;5202769;28;20539;-66
2021/01/10 01:27:56;;;;;;;83.97;38.35;;;;;;;-1.14;100.00;102548.47;5201402;28;20340;-66
2021/01/10 01:30:26;;;;;;;82.05;39.40;;;;;;;-1.15;100.00;102549.41;5201875;28;20029;-66
2021/01/10 01:32:57;;;;;;;83.80;37.78;;;;;;;-1.14;100.00;102551.97;5202086;28;20537;-66
2021/01/10 01:35:27;;;;;;;98.05;41.30;;;;;;;-1.17;100.00;102546.78;5202095;28;20059;-66
2021/01/10 01:37:58;;;;;;;76.90;36.83;;;;;;;-1.20;100.00;102548.69;5201790;28;20410;-66
2021/01/10 01:40:28;;;;;;;93.00;39.22;;;;;;;-1.24;100.00;102547.91;5201749;28;20599;-66
2021/01/10 01:42:59;;;;;;;78.18;35.63;;;;;;;-1.26;100.00;102557.63;5202358;28;20112;-66
2021/01/10 01:45:29;;;;;;;70.45;33.20;;;;;;;-1.34;100.00;102557.88;5201935;28;20101;-66
2021/01/10 01:48:01;;;;;;;78.55;36.55;;;;;;;-1.39;100.00;102546.63;5201181;28;20033;-66
2021/01/10 01:50:32;;;;;;;79.30;35.28;;;;;;;-1.37;100.00;102552.69;5201304;28;20461;-66
2021/01/10 01:53:02;;;;;;;77.88;34.03;;;;;;;-1.40;100.00;102549.31;5201278;28;21496;-66
2021/01/10 01:55:35;;;;;;;80.68;37.45;;;;;;;-1.40;100.00;102552.81;5201601;28;20025;-66
2021/01/10 01:58:06;;;;;;;81.90;35.65;;;;;;;-1.42;100.00;102557.25;5207784;28;20100;-66
2021/01/10 02:00:36;;;;;;;74.20;34.03;;;;;;;-1.41;100.00;102550.19;5202086;28;20128;-66
2021/01/10 02:03:07;;;;;;;81.68;37.70;;;;;;;-1.43;100.00;102552.03;5201819;28;20021;-66
2021/01/10 02:05:38;;;;;;;88.05;38.17;;;;;;;-1.42;100.00;102543.22;5195136;28;20553;-66
2021/01/10 02:08:10;;;;;;;89.10;39.63;;;;;;;-1.44;100.00;102542.41;5195593;28;20068;-66
2021/01/10 02:10:42;;;;;;;86.63;38.50;;;;;;;-1.46;100.00;102539.81;5202394;28;20117;-66
2021/01/10 02:13:29;;;;;;;85.97;36.40;;;;;;;-1.48;100.00;102540.78;5202150;28;20029;-66
2021/01/10 02:16:01;;;;;;;93.18;37.80;;;;;;;-1.55;100.00;102534.00;5201222;28;20033;-66
2021/01/10 02:18:36;;;;;;;88.75;40.20;;;;;;;-1.67;100.00;102537.84;5201581;28;20079;-66
2021/01/10 02:21:08;;;;;;;80.65;36.50;;;;;;;-1.76;100.00;102535.47;5201750;28;20021;-66
2021/01/10 02:23:40;;;;;;;82.97;36.17;;;;;;;-1.87;100.00;102535.81;5201791;28;20083;-66
2021/01/10 02:26:10;;;;;;;94.55;38.60;;;;;;;-1.96;100.00;102536.06;5201230;28;20083;-66
2021/01/10 02:28:42;;;;;;;80.28;34.17;;;;;;;-2.03;100.00;102539.78;5200649;28;20509;-66
2021/01/10 02:31:21;;;;;;;94.32;39.25;;;;;;;-2.09;100.00;102538.22;5201762;28;20054;-66
2021/01/10 02:34:00;;;;;;;84.55;33.83;;;;;;;-2.17;100.00;102534.91;5201816;28;20060;-66
2021/01/10 02:36:47;;;;;;;90.78;34.90;;;;;;;-2.24;100.00;102534.25;5201110;28;20029;-66
2021/01/10 02:39:28;;;;;;;89.70;34.47;;;;;;;-2.26;100.00;102538.69;5201169;28;20017;-66
2021/01/10 02:42:08;;;;;;;88.38;35.80;;;;;;;-2.26;100.00;102535.16;5201841;28;20021;-66
2021/01/10 02:44:42;;;;;;;84.18;36.85;;;;;;;-2.23;100.00;102533.31;5189412;28;20128;-66
2021/01/10 02:47:13;;;;;;;75.93;32.47;;;;;;;-2.17;100.00;102529.66;5200398;28;20104;-66
2021/01/10 02:49:45;;;;;;;89.20;35.65;;;;;;;-2.12;100.00;102519.88;5199583;28;20117;-66
2021/01/10 02:52:15;;;;;;;82.63;35.25;;;;;;;-2.05;100.00;102523.22;5197829;28;20040;-66
2021/01/10 02:54:46;;;;;;;74.72;32.95;;;;;;;-2.01;100.00;102522.19;5188921;28;20101;-66
2021/01/10 02:57:23;;;;;;;75.30;34.15;;;;;;;-1.96;100.00;102522.91;5200261;28;20026;-66
2021/01/10 02:59:57;;;;;;;80.65;35.15;;;;;;;-1.88;100.00;102529.69;5195087;28;20227;-66
2021/01/10 03:02:28;;;;;;;77.50;33.35;;;;;;;-1.81;100.00;102525.09;5201603;28;20320;-66
2021/01/10 03:05:00;;;;;;;75.63;32.55;;;;;;;-1.73;100.00;102516.97;5199301;28;20112;-66
2021/01/10 03:07:34;;;;;;;71.55;31.92;;;;;;;-1.68;100.00;102513.31;5203754;28;20386;-66
2021/01/10 03:10:06;;;;;;;71.40;33.30;;;;;;;-1.64;100.00;102507.03;5205314;28;20128;-66
2021/01/10 03:12:38;;;;;;;79.38;31.77;;;;;;;-1.59;100.00;102515.66;5204945;28;20075;-66
2021/01/10 03:15:09;;;;;;;67.13;30.27;;;;;;;-1.55;100.00;102515.56;5204860;28;20477;-66
2021/01/10 03:17:41;;;;;;;63.92;28.60;;;;;;;-1.48;100.00;102510.06;5204638;28;20428;-66
2021/01/10 03:20:14;;;;;;;65.90;29.35;;;;;;;-1.45;100.00;102519.63;5205247;28;20026;-66
2021/01/10 03:22:46;;;;;;;62.33;27.05;;;;;;;-1.45;100.00;102514.38;5204262;28;20029;-66
2021/01/10 03:25:18;;;;;;;68.20;29.88;;;;;;;-1.41;100.00;102521.25;5205042;28;20076;-66
2021/01/10 03:27:49;;;;;;;67.55;29.33;;;;;;;-1.36;100.00;102514.06;5203614;28;20025;-66
2021/01/10 03:30:19;;;;;;;61.15;27.48;;;;;;;-1.34;100.00;102507.00;5204924;28;20048;-66
2021/01/10 03:32:50;;;;;;;65.15;29.80;;;;;;;-1.34;100.00;102502.59;5204445;28;20493;-66
2021/01/10 03:35:21;;;;;;;61.80;26.38;;;;;;;-1.29;100.00;102506.84;5204470;28;20033;-66
2021/01/10 03:37:52;;;;;;;73.30;31.30;;;;;;;-1.27;100.00;102512.91;5204069;28;20021;-66
2021/01/10 03:40:22;;;;;;;69.45;29.55;;;;;;;-1.26;100.00;102502.31;5204283;28;20494;-66
2021/01/10 03:42:53;;;;;;;65.40;28.60;;;;;;;-1.23;100.00;102506.63;5204754;28;20025;-66
2021/01/10 03:45:23;;;;;;;67.75;28.08;;;;;;;-1.20;100.00;102501.28;5204562;28;20075;-66
2021/01/10 03:47:54;;;;;;;72.00;27.33;;;;;;;-1.16;100.00;102498.47;5203370;28;20108;-66
2021/01/10 03:50:25;;;;;;;58.70;26.67;;;;;;;-1.11;100.00;102506.22;5200959;28;20021;-66
2021/01/10 03:52:55;;;;;;;65.30;27.98;;;;;;;-1.09;100.00;102502.63;5204272;28;20541;-67
2021/01/10 03:55:26;;;;;;;62.58;28.42;;;;;;;-1.06;100.00;102496.41;5204306;28;20060;-66
2021/01/10 03:57:56;;;;;;;60.47;28.17;;;;;;;-1.03;100.00;102495.44;5207775;28;20040;-66
2021/01/10 04:00:27;;;;;;;61.67;27.13;;;;;;;-0.97;100.00;102496.09;5205062;28;20021;-66
2021/01/10 04:02:57;;;;;;;56.70;26.15;;;;;;;-0.98;100.00;102491.75;5204351;28;20072;-67
2021/01/10 04:05:28;;;;;;;60.58;26.25;;;;;;;-0.98;100.00;102496.16;5198971;28;20021;-70
2021/01/10 04:07:58;;;;;;;62.53;27.60;;;;;;;-0.97;100.00;102487.31;5198665;28;20108;-67
2021/01/10 04:10:29;;;;;;;62.28;27.00;;;;;;;-0.96;100.00;102486.41;5205292;28;20029;-67
2021/01/10 04:13:00;;;;;;;56.95;26.60;;;;;;;-0.95;100.00;102488.16;5204024;28;20056;-67
2021/01/10 04:15:30;;;;;;;58.53;25.20;;;;;;;-0.96;100.00;102482.00;5205016;28;20029;-66
2021/01/10 04:18:01;;;;;;;58.88;26.30;;;;;;;-0.96;100.00;102482.00;5203417;28;20077;-67
2021/01/10 04:20:31;;;;;;;71.13;27.17;;;;;;;-1.00;100.00;102482.16;5205180;28;20017;-66
2021/01/10 04:23:02;;;;;;;60.13;25.65;;;;;;;-1.06;100.00;102485.84;5203825;28;20083;-66
2021/01/10 04:25:33;;;;;;;68.78;27.83;;;;;;;-1.12;100.00;102484.28;5204322;28;20211;-66
2021/01/10 04:28:04;;;;;;;58.03;25.45;;;;;;;-1.15;100.00;102492.31;5202740;28;20029;-66
2021/01/10 04:30:34;;;;;;;57.33;27.10;;;;;;;-1.14;100.00;102490.53;5204058;28;20021;-67
2021/01/10 04:33:05;;;;;;;54.97;24.35;;;;;;;-1.14;100.00;102501.94;5204101;28;20108;-66
2021/01/10 04:35:35;;;;;;;64.53;27.35;;;;;;;-1.15;100.00;102496.72;5203444;28;20508;-66
2021/01/10 04:38:06;;;;;;;69.65;27.73;;;;;;;-1.21;100.00;102492.50;5203707;28;20075;-66
2021/01/10 04:40:36;;;;;;;53.38;23.90;;;;;;;-1.22;100.00;102489.91;5203527;28;20363;-67
2021/01/10 04:43:07;;;;;;;63.58;24.70;;;;;;;-1.27;100.00;102487.44;5203701;28;20029;-66
2021/01/10 04:45:41;;;;;;;64.18;25.40;;;;;;;-1.33;100.00;102491.13;5204067;28;20470;-66
2021/01/10 04:48:12;;;;;;;62.78;26.58;;;;;;;-1.35;100.00;102489.47;5202650;28;20045;-67
2021/01/10 04:50:43;;;;;;;62.63;25.30;;;;;;;-1.39;100.00;102496.59;5200439;28;20474;-66
2021/01/10 04:53:19;;;;;;;58.88;25.27;;;;;;;-1.40;100.00;102486.13;5202696;28;20068;-67
2021/01/10 04:55:57;;;;;;;61.08;25.73;;;;;;;-1.41;100.00;102490.50;5191398;28;20025;-66
2021/01/10 04:58:29;;;;;;;56.60;24.90;;;;;;;-1.45;100.00;102485.41;5208932;28;20025;-66
2021/01/10 05:01:01;;;;;;;51.08;23.83;;;;;;;-1.53;100.00;102482.16;5203213;28;20021;-67
2021/01/10 05:03:36;;;;;;;59.13;24.05;;;;;;;-1.63;100.00;102489.47;5202982;28;20026;-66
2021/01/10 05:06:08;;;;;;;49.63;22.77;;;;;;;-1.75;100.00;102487.25;5193121;28;20057;-67
2021/01/10 05:08:39;;;;;;;53.13;22.38;;;;;;;-1.84;100.00;102494.50;5201578;28;20034;-66
2021/01/10 05:11:10;;;;;;;53.05;23.73;;;;;;;-1.94;100.00;102498.31;5202469;28;20025;-66
2021/01/10 05:13:40;;;;;;;63.13;25.70;;;;;;;-2.00;100.00;102495.00;5202153;28;20026;-66
2021/01/10 05:16:18;;;;;;;50.85;22.45;;;;;;;-2.08;100.00;102498.72;5202630;28;20032;-66
2021/01/10 05:18:51;;;;;;;60.60;24.05;;;;;;;-2.15;100.00;102493.69;5202920;28;20021;-67
2021/01/10 05:21:23;;;;;;;58.90;23.92;;;;;;;-2.24;100.00;102489.53;5202625;28;20029;-67
2021/01/10 05:23:55;;;;;;;52.55;23.85;;;;;;;-2.30;100.00;102489.72;5202575;28;20470;-66
2021/01/10 05:26:34;;;;;;;58.10;23.95;;;;;;;-2.32;100.00;102495.91;5202029;28;20485;-67
2021/01/10 05:29:08;;;;;;;58.33;25.08;;;;;;;-2.33;100.00;102491.56;5201168;28;20033;-66
2021/01/10 05:31:41;;;;;;;60.47;23.83;;;;;;;-2.30;100.00;102489.72;5202885;28;20209;-66
2021/01/10 05:34:15;;;;;;;46.28;22.00;;;;;;;-2.24;100.00;102486.06;5202075;28;20037;-67
2021/01/10 05:36:46;;;;;;;52.35;23.50;;;;;;;-2.20;100.00;102482.44;5202083;28;20017;-66
2021/01/10 05:39:21;;;;;;;53.95;23.90;;;;;;;-2.15;100.00;102483.16;5207421;28;20033;-66
2021/01/10 05:41:59;;;;;;;57.28;23.88;;;;;;;-2.08;100.00;102480.28;5202302;28;20021;-66
2021/01/10 05:44:52;;;;;;;57.17;25.70;;;;;;;-1.99;100.00;102489.69;5201520;28;20049;-67
2021/01/10 05:47:23;;;;;;;50.03;23.20;;;;;;;-1.90;100.00;102478.91;5201595;28;20543;-66
2021/01/10 05:49:54;;;;;;;55.70;23.83;;;;;;;-1.84;100.00;102478.72;5198911;28;20112;-66
2021/01/10 05:52:25;;;;;;;55.90;22.70;;;;;;;-1.77;100.00;102474.09;5200787;28;20399;-66
2021/01/10 05:54:56;;;;;;;59.10;23.75;;;;;;;-1.74;100.00;102471.41;5201691;28;20037;-67
2021/01/10 05:57:28;;;;;;;46.17;21.95;;;;;;;-1.69;100.00;102458.09;5203029;28;20036;-67
2021/01/10 05:59:58;;;;;;;51.50;21.27;;;;;;;-1.65;100.00;102468.47;5206759;28;20128;-67
2021/01/10 06:02:31;;;;;;;49.05;22.20;;;;;;;-1.63;100.00;102471.06;5203070;28;20104;-67
2021/01/10 06:05:11;;;;;;;63.13;27.20;;;;;;;-1.64;100.00;102467.56;5200331;28;20083;-66
2021/01/10 06:07:43;;;;;;;50.20;22.15;;;;;;;-1.56;100.00;102462.03;5193928;28;20033;-67
2021/01/10 06:10:26;;;;;;;49.70;22.45;;;;;;;-1.56;100.00;102472.56;5201754;28;20029;-67
2021/01/10 06:13:04;;;;;;;79.13;32.10;;;;;;;-1.57;100.00;102466.44;5201899;28;20033;-66
2021/01/10 06:15:35;;;;;;;65.22;26.83;;;;;;;-1.54;100.00;102472.53;5201865;28;20025;-67
2021/01/10 06:18:06;;;;;;;60.17;25.17;;;;;;;-1.51;100.00;102475.91;5200982;28;20052;-67
2021/01/10 06:20:37;;;;;;;55.33;23.60;;;;;;;-1.49;100.00;102471.47;5202047;28;20092;-67
2021/01/10 06:23:08;;;;;;;65.03;22.90;;;;;;;-1.46;100.00;102473.13;5201756;28;20029;-67
2021/01/10 06:25:42;;;;;;;48.40;22.27;;;;;;;-1.43;100.00;102473.06;5201977;28;20440;-66
2021/01/10 06:28:16;;;;;;;52.28;23.35;;;;;;;-1.42;100.00;102480.88;5186378;28;20041;-66
2021/01/10 06:30:55;;;;;;;54.72;22.17;;;;;;;-1.40;100.00;102473.81;5201442;28;20041;-67
2021/01/10 06:33:32;;;;;;;53.38;22.92;;;;;;;-1.36;100.00;102478.06;5201846;28;20029;-67
2021/01/10 06:36:03;;;;;;;52.92;23.58;;;;;;;-1.33;100.00;102474.47;5201282;28;20029;-66
2021/01/10 06:38:36;;;;;;;49.90;22.95;;;;;;;-1.31;100.00;102470.00;5200416;28;20037;-67
2021/01/10 06:41:19;;;;;;;50.13;23.50;;;;;;;-1.26;100.00;102470.72;5201230;28;20694;-67
2021/01/10 06:43:55;;;;;;;44.70;20.70;;;;;;;-1.24;100.00;102475.94;5201372;28;20033;-67
2021/01/10 06:46:25;;;;;;;45.85;20.50;;;;;;;-1.23;100.00;102473.25;5201273;28;20082;-67
2021/01/10 06:48:56;;;;;;;50.08;20.90;;;;;;;-1.21;100.00;102473.19;5201077;28;20025;-67
2021/01/10 06:51:29;;;;;;;45.38;21.42;;;;;;;-1.22;100.00;102471.47;5195859;28;20033;-67
2021/01/10 06:54:04;;;;;;;43.88;21.02;;;;;;;-1.22;100.00;102474.97;5191565;28;20030;-67
2021/01/10 06:56:35;;;;;;;51.35;21.13;;;;;;;-1.20;100.00;102472.31;5195917;28;20112;-67
2021/01/10 06:59:13;;;;;;;54.55;21.23;;;;;;;-1.18;100.00;102475.75;5206107;28;20116;-67
2021/01/10 07:01:48;;;;;;;46.90;22.02;;;;;;;-1.14;100.00;102469.47;5199734;28;20057;-67
2021/01/10 07:04:48;;;;;;;48.05;22.15;;;;;;;-1.11;100.00;102474.63;5205729;28;20033;-69
2021/01/10 07:07:40;;;;;;;51.33;22.42;;;;;;;-1.08;100.00;102477.16;5215489;28;20271;-67
2021/01/10 07:10:23;;;;;;;53.78;23.08;;;;;;;-1.07;100.00;102476.25;5200181;28;20161;-67
2021/01/10 07:12:53;;;;;;;54.58;22.50;;;;;;;-1.04;100.00;102476.16;5201247;28;20352;-67
2021/01/10 07:15:25;;;;;;;51.65;23.30;;;;;;;-1.01;100.00;102478.66;5199485;28;20512;-67
2021/01/10 07:18:05;;;;;;;53.80;23.63;;;;;;;-1.02;100.00;102470.81;5199015;28;20022;-67
2021/01/10 07:20:39;;;;;;;57.08;24.73;;;;;;;-1.06;100.00;102473.53;5198856;28;20025;-67
2021/01/10 07:23:27;;;;;;;57.10;25.05;;;;;;;-1.03;100.00;102482.28;5198806;28;20025;-65
2021/01/10 07:25:59;;;;;;;47.50;22.17;;;;;;;-1.04;100.00;102476.16;5196522;28;20040;-67
2021/01/10 07:28:33;;;;;;;53.72;21.60;;;;;;;-1.04;100.00;102478.78;5198295;28;20040;-67
2021/01/10 07:31:07;;;;;;;49.85;22.88;;;;;;;-1.09;100.00;102478.06;5200068;28;20367;-67
2021/01/10 07:33:39;;;;;;;53.95;23.33;;;;;;;-1.15;100.00;102486.19;5199720;28;20025;-67
2021/01/10 07:36:20;;;;;;;52.17;22.98;;;;;;;-1.20;100.00;102485.47;5201054;28;20037;-67
2021/01/10 07:38:52;;;;;;;51.92;23.25;;;;;;;-1.22;100.00;102487.28;5199884;28;20024;-67
2021/01/10 07:41:25;;;;;;;45.70;22.73;;;;;;;-1.24;100.00;102489.13;5203015;28;20081;-67
2021/01/10 07:43:57;;;;;;;49.55;21.95;;;;;;;-1.27;100.00;102487.44;5197756;28;20281;-67
2021/01/10 07:46:51;;;;;;;48.13;20.92;;;;;;;-1.34;100.00;102493.81;5194550;28;20509;-67
2021/01/10 07:49:25;;;;;;;54.60;22.45;;;;;;;-1.39;100.00;102490.47;5218239;28;20025;-67
2021/01/10 07:51:56;;;;;;;54.13;23.38;;;;;;;-1.43;100.00;102494.97;5199948;28;20056;-67
2021/01/10 07:54:48;;;;;;;48.05;22.30;;;;;;;-1.48;100.00;102491.63;5203642;28;20098;-67
2021/01/10 07:57:30;;;;;;;48.22;22.02;;;;;;;-1.50;100.00;102496.09;5202459;28;20025;-67
2021/01/10 08:00:09;;;;;;;44.50;20.50;;;;;;;-1.53;100.00;102497.94;5207469;28;20552;-67
2021/01/10 08:02:51;;;;;;;55.13;21.92;;;;;;;-1.60;100.00;102497.28;5203867;28;20505;-67
2021/01/10 08:05:26;;;;;;;43.72;21.52;;;;;;;-1.65;100.00;102496.56;5199972;28;20079;-67
2021/01/10 08:08:02;;;;;;;48.75;21.33;;;;;;;-1.70;100.00;102498.47;5201957;28;20160;-67
2021/01/10 08:10:49;;;;;;;47.55;21.50;;;;;;;-1.77;100.00;102496.94;5202871;28;20033;-67
2021/01/10 08:13:37;;;;;;;44.22;21.67;;;;;;;-1.85;100.00;102499.81;5215046;28;20030;-68
2021/01/10 08:16:23;;;;;;;50.13;21.95;;;;;;;-1.89;100.00;102503.44;5203031;28;20037;-68
2021/01/10 08:19:00;;;;;;;56.80;22.65;;;;;;;-1.94;100.00;102500.94;5202783;28;20056;-66
2021/01/10 08:21:31;;;;;;;52.92;21.77;;;;;;;-1.98;100.00;102507.19;5202631;28;20029;-67
2021/01/10 08:24:03;;;;;;;50.63;23.83;;;;;;;-2.01;100.00;102517.78;5203271;28;20033;-66
2021/01/10 08:26:42;;;;;;;52.33;23.60;;;;;;;-2.02;100.00;102515.22;5196470;28;20033;-67
2021/01/10 08:29:15;;;;;;;56.50;24.80;;;;;;;-2.04;100.00;102515.28;5199291;28;20042;-67
2021/01/10 08:31:49;;;;;;;60.08;24.80;;;;;;;-2.06;100.00;102510.94;5203160;28;20029;-67
2021/01/10 08:34:20;;;;;;;59.40;23.27;;;;;;;-2.09;100.00;102514.53;5184631;28;20025;-66
2021/01/10 08:36:51;;;;;;;54.90;25.08;;;;;;;-2.11;100.00;102516.34;5200851;28;20555;-67
2021/01/10 08:39:22;;;;;;;56.92;23.83;;;;;;;-2.14;100.00;102522.56;5201007;28;20076;-67
2021/01/10 08:41:55;;;;;;;56.75;25.02;;;;;;;-2.14;100.00;102521.69;5185134;28;20029;-67
2021/01/10 08:44:26;;;;;;;64.63;26.85;;;;;;;-2.13;100.00;102521.66;5202532;28;20683;-67
2021/01/10 08:46:57;;;;;;;62.35;27.60;;;;;;;-2.09;100.00;102520.66;5195774;28;20396;-67
2021/01/10 08:49:28;;;;;;;67.68;27.45;;;;;;;-2.03;100.00;102516.97;5201845;28;20029;-67
2021/01/10 08:52:03;;;;;;;62.00;27.67;;;;;;;-1.96;100.00;102523.81;5197525;28;20038;-67
2021/01/10 08:54:34;;;;;;;66.57;27.10;;;;;;;-1.89;100.00;102521.84;5191219;28;20040;-66
2021/01/10 08:57:06;;;;;;;64.05;27.00;;;;;;;-1.77;100.00;102521.47;5199086;28;20037;-68
2021/01/10 08:59:38;;;;;;;76.85;27.98;;;;;;;-1.65;100.00;102526.38;5192466;28;20032;-68
2021/01/10 09:02:10;;;;;;;64.05;27.70;;;;;;;-1.55;100.00;102523.47;5201449;28;20042;-68
2021/01/10 09:04:42;;;;;;;60.25;26.92;;;;;;;-1.47;100.00;102522.28;5201681;28;20033;-68
2021/01/10 09:07:24;;;;;;;61.75;27.85;;;;;;;-1.39;100.00;102524.72;5198455;28;20196;-67
2021/01/10 09:10:03;;;;;;;61.17;28.02;;;;;;;-1.31;100.00;102526.19;5200723;28;20169;-67
2021/01/10 09:12:39;;;;;;;60.33;26.83;;;;;;;-1.26;100.00;102533.06;5201595;28;20025;-67
2021/01/10 09:15:14;;;;;;;;;;;;;;;-1.23;100.00;102532.97;5204432;28;20045;-68
2021/01/10 09:17:49;;;;;;;67.95;28.38;;;;;;;-1.21;100.00;102537.25;5212318;28;19915;-72
2021/01/10 09:20:26;;;;;;;69.28;28.80;;;;;;;-1.17;100.00;102531.00;5226651;28;20029;-67
2021/01/10 09:22:58;;;;;;;83.82;33.28;;;;;;;-1.10;100.00;102531.69;5191333;28;20041;-67
2021/01/10 09:25:32;;;;;;;78.22;33.42;;;;;;;-1.06;100.00;102533.28;5219180;28;20025;-67
2021/01/10 09:28:05;;;;;;;91.10;35.80;;;;;;;-1.02;100.00;102534.03;5200327;28;20033;-67
2021/01/10 09:30:39;;;;;;;93.45;32.80;;;;;;;-0.97;100.00;102532.97;5222257;28;20036;-67
2021/01/10 09:33:11;;;;;;;84.35;32.80;;;;;;;-0.93;100.00;102534.59;5200503;28;20030;-69
2021/01/10 09:35:44;;;;;;;77.25;33.40;;;;;;;-0.88;100.00;102535.31;5219516;28;20034;-67
2021/01/10 09:38:18;;;;;;;68.82;30.67;;;;;;;-0.81;100.00;102536.81;5183639;28;20071;-67
2021/01/10 09:41:03;;;;;;;78.55;31.23;;;;;;;-0.73;100.00;102539.19;5202121;28;20116;-67
2021/01/10 09:43:42;;;;;;;69.15;30.33;;;;;;;-0.70;100.00;102533.84;5203043;28;20308;-67
2021/01/10 09:46:28;;;;;;;69.47;30.00;;;;;;;-0.62;100.00;102541.47;5200627;28;20504;-67
2021/01/10 09:49:02;;;;;;;75.18;31.58;;;;;;;-0.59;100.00;102544.88;5202514;28;20025;-67
2021/01/10 09:51:39;;;;;;;69.80;30.88;;;;;;;-0.58;100.00;102537.81;5197236;28;20041;-67
2021/01/10 09:54:12;;;;;;;71.80;33.10;;;;;;;-0.56;100.00;102530.69;5223014;28;20026;-68
2021/01/10 09:56:47;;;;;;;66.18;29.67;;;;;;;-0.52;100.00;102537.59;5194273;28;20025;-67
2021/01/10 09:59:34;;;;;;;68.40;30.90;;;;;;;-0.52;100.00;102537.59;5206717;28;20386;-67
2021/01/10 10:02:11;;;;;;;61.75;30.52;;;;;;;-0.50;100.00;102546.31;5199860;28;20028;-67
2021/01/10 10:04:45;;;;;;;68.18;30.38;;;;;;;-0.49;100.00;102541.91;5201213;28;20029;-67
2021/01/10 10:07:34;;;;;;;69.37;29.67;;;;;;;-0.48;100.00;102544.47;5198075;28;20029;-67
2021/01/10 10:10:18;;;;;;;75.88;31.25;;;;;;;-0.48;100.00;102544.47;5195237;28;20038;-66
2021/01/10 10:12:51;;;;;;;68.63;31.48;;;;;;;-0.48;100.00;102544.47;5176645;28;20110;-67
2021/01/10 10:15:34;;;;;;;77.38;31.88;;;;;;;-0.48;100.00;102541.84;5198823;28;20036;-67
2021/01/10 10:18:06;;;;;;;73.40;31.33;;;;;;;-0.50;100.00;102542.81;5182415;28;20245;-66
2021/01/10 10:20:37;;;;;;;62.33;28.75;;;;;;;-0.51;100.00;102536.66;5200451;28;20528;-67
2021/01/10 10:23:09;;;;;;;81.32;33.45;;;;;;;-0.50;100.00;102537.53;5201180;28;20124;-67
2021/01/10 10:25:41;;;;;;;65.20;30.33;;;;;;;-0.49;100.00;102539.28;5197023;28;20030;-67
2021/01/10 10:28:13;;;;;;;62.22;29.05;;;;;;;-0.45;100.00;102536.47;5200869;28;20378;-67
2021/01/10 10:30:46;;;;;;;85.50;35.83;;;;;;;-0.43;100.00;102528.50;5203239;28;20023;-67
2021/01/10 10:33:17;;;;;;;74.95;32.22;;;;;;;-0.40;100.00;102531.91;5205873;28;20033;-66
2021/01/10 10:35:54;;;;;;;69.80;31.77;;;;;;;-0.37;100.00;102538.81;5218838;28;20087;-67
2021/01/10 10:38:25;;;;;;;77.85;35.30;;;;;;;-0.35;100.00;102529.97;5201609;28;20083;-67
2021/01/10 10:40:57;;;;;;;70.25;33.15;;;;;;;-0.35;100.00;102535.25;5198911;28;20029;-67
2021/01/10 10:43:28;;;;;;;80.80;36.38;;;;;;;-0.35;100.00;102532.59;5200483;28;20357;-67
2021/01/10 10:45:58;;;;;;;75.75;33.90;;;;;;;-0.32;100.00;102521.91;5200692;28;20410;-66
2021/01/10 10:48:29;;;;;;;74.30;35.17;;;;;;;-0.21;100.00;102525.94;5196259;28;20025;-67
2021/01/10 10:51:00;;;;;;;75.40;35.95;;;;;;;-0.14;100.00;102515.13;5198560;28;20029;-66
2021/01/10 10:53:31;;;;;;;81.88;33.47;;;;;;;-0.01;100.00;102519.00;5199266;28;20025;-66
2021/01/10 10:56:02;;;;;;;72.30;33.28;;;;;;;0.09;100.00;102508.97;5188437;28;20026;-67
2021/01/10 10:58:32;;;;;;;73.25;34.13;;;;;;;0.15;100.00;102513.16;5204871;28;20044;-67
2021/01/10 11:01:03;;;;;;;71.25;32.13;;;;;;;0.18;100.00;102516.53;5199650;28;20021;-67
2021/01/10 11:03:33;;;;;;;73.00;32.60;;;;;;;0.27;100.00;102514.47;5199639;28;20041;-68
2021/01/10 11:06:04;;;;;;;66.57;30.48;;;;;;;0.33;100.00;102517.72;5189626;28;20108;-67
2021/01/10 11:08:34;;;;;;;72.45;32.72;;;;;;;0.42;100.00;102516.53;5197845;28;20029;-66
2021/01/10 11:11:05;;;;;;;73.47;33.95;;;;;;;0.50;100.00;102503.84;5200052;28;20108;-66
2021/01/10 11:13:35;;;;;;;81.97;34.33;;;;;;;0.57;100.00;102499.22;5199358;28;20021;-66
2021/01/10 11:16:06;;;;;;;79.07;34.83;;;;;;;0.71;100.00;102503.03;5198858;28;20113;-68
2021/01/10 11:18:36;;;;;;;70.35;35.03;;;;;;;0.87;100.00;102502.38;5198973;28;20313;-67
2021/01/10 11:21:07;;;;;;;78.70;33.17;;;;;;;0.93;100.00;102495.06;5199413;28;20460;-67
2021/01/10 11:23:37;;;;;;;70.65;33.83;;;;;;;1.02;100.00;102496.47;5199633;28;20120;-66
2021/01/10 11:26:08;;;;;;;66.93;33.35;;;;;;;1.20;100.00;102490.38;5198051;28;20457;-67
2021/01/10 11:28:38;;;;;;;73.85;33.35;;;;;;;1.33;100.00;102496.00;5203113;28;20610;-66
2021/01/10 11:31:08;;;;;;;71.90;32.72;;;;;;;1.52;100.00;102488.13;5203069;28;20029;-66